Time;durP1;ratioP1;P1;durP2;ratioP2;P2;SDS_P1;SDS_P2;PMS_P1;PMS_P2;Temp;Humidity;BMP_temperature;BMP_pressure;BME280_temperature;BME280_humidity;BME280_pressure;Samples;Min_cycle;Max_cycle;Signal;HPM_P1;HPM_P2
2022/10/19 00:02:04;;;;;;;2.67;1.80;;;18.90;53.90;;;;;;4932993;29;20210;-39
2022/10/19 00:04:35;;;;;;;3.17;1.80;;;19.00;53.70;;;;;;4934467;29;20208;-46
2022/10/19 00:07:06;;;;;;;2.53;1.63;;;19.00;53.60;;;;;;4934820;29;20242;-38
2022/10/19 00:09:39;;;;;;;3.33;1.83;;;19.00;53.50;;;;;;4934581;29;20242;-48
2022/10/19 00:12:09;;;;;;;3.42;1.83;;;19.00;53.50;;;;;;4934176;29;20670;-37
2022/10/19 00:14:40;;;;;;;3.17;1.67;;;19.10;53.50;;;;;;4934991;29;20203;-35
2022/10/19 00:17:11;;;;;;;1.60;1.50;;;19.10;53.60;;;;;;4934089;29;20238;-35
2022/10/19 00:19:42;;;;;;;2.50;1.67;;;19.10;53.60;;;;;;4934838;29;20221;-36
2022/10/19 00:22:12;;;;;;;3.50;1.83;;;19.10;53.60;;;;;;4935096;29;20208;-36
2022/10/19 00:24:45;;;;;;;2.95;1.40;;;19.20;53.50;;;;;;4934767;29;20215;-38
2022/10/19 00:27:16;;;;;;;3.03;1.33;;;19.20;53.50;;;;;;4934518;29;20257;-35
2022/10/19 00:29:46;;;;;;;1.60;1.30;;;19.20;53.50;;;;;;4934896;29;20207;-35
2022/10/19 00:32:17;;;;;;;2.80;1.60;;;19.20;53.50;;;;;;4933894;29;20196;-42
2022/10/19 00:34:50;;;;;;;2.28;1.55;;;19.20;53.40;;;;;;4953453;29;20202;-39
2022/10/19 00:37:20;;;;;;;2.90;1.42;;;19.30;53.40;;;;;;4935999;28;20229;-40
2022/10/19 00:39:53;;;;;;;2.40;1.67;;;19.30;53.30;;;;;;4934409;29;20202;-35
2022/10/19 00:42:24;;;;;;;2.63;1.50;;;19.30;53.20;;;;;;4933381;29;20219;-36
2022/10/19 00:45:03;;;;;;;2.15;1.30;;;19.30;53.10;;;;;;4934245;29;20207;-38
2022/10/19 00:47:35;;;;;;;2.63;1.60;;;19.40;53.10;;;;;;4934460;29;20223;-36
2022/10/19 00:50:06;;;;;;;2.60;1.13;;;19.40;53.00;;;;;;4933958;29;20203;-42
2022/10/19 00:52:37;;;;;;;2.03;1.17;;;19.40;53.00;;;;;;4934472;29;20199;-40
2022/10/19 00:55:12;;;;;;;2.80;1.30;;;19.50;53.50;;;;;;4936594;29;20203;-36
2022/10/19 00:57:43;;;;;;;2.13;1.30;;;19.50;52.60;;;;;;4933445;29;20667;-36
2022/10/19 01:00:14;;;;;;;2.00;1.55;;;19.50;52.70;;;;;;4933500;29;20207;-36
2022/10/19 01:02:45;;;;;;;1.77;1.05;;;19.50;52.80;;;;;;4933660;29;20200;-36
2022/10/19 01:05:17;;;;;;;1.80;1.20;;;19.50;52.70;;;;;;4934019;29;20220;-40
2022/10/19 01:07:48;;;;;;;2.03;1.25;;;19.50;52.40;;;;;;4932372;29;20234;-35
2022/10/19 01:10:26;;;;;;;2.55;1.20;;;19.50;52.60;;;;;;4934202;29;20565;-41
2022/10/19 01:13:12;;;;;;;1.73;1.30;;;19.60;52.70;;;;;;4933676;29;20235;-39
2022/10/19 01:15:50;;;;;;;2.85;1.02;;;19.60;52.60;;;;;;4933456;29;20226;-39
2022/10/19 01:18:26;;;;;;;1.70;1.20;;;19.60;52.50;;;;;;4933841;29;20195;-38
2022/10/19 01:21:20;;;;;;;2.53;1.30;;;19.70;52.50;;;;;;4933342;29;20215;-40
2022/10/19 01:24:27;;;;;;;1.35;1.10;;;19.70;52.40;;;;;;4933420;29;20210;-41
2022/10/19 01:27:36;;;;;;;1.90;1.05;;;19.70;52.10;;;;;;4933216;29;20227;-36
2022/10/19 01:30:19;;;;;;;2.25;1.40;;;19.70;51.90;;;;;;4905967;29;20216;-41
2022/10/19 01:33:10;;;;;;;1.35;1.00;;;19.70;51.70;;;;;;4934216;29;20194;-36
2022/10/19 01:35:48;;;;;;;2.85;1.25;;;19.70;51.60;;;;;;4940399;28;20227;-36
2022/10/19 01:38:29;;;;;;;2.08;1.20;;;19.70;51.50;;;;;;4914126;29;20694;-35
2022/10/19 01:41:07;;;;;;;1.40;0.98;;;19.70;51.20;;;;;;4916764;29;20657;-37
2022/10/19 01:43:45;;;;;;;1.63;1.20;;;19.70;51.40;;;;;;4933339;29;20195;-43
2022/10/19 01:46:22;;;;;;;1.85;1.00;;;19.80;51.60;;;;;;4932465;29;20246;-36
2022/10/19 01:49:00;;;;;;;2.22;1.00;;;19.80;51.70;;;;;;4932501;29;20211;-36
2022/10/19 01:51:33;;;;;;;2.13;1.30;;;19.80;51.70;;;;;;4933232;29;20192;-35
2022/10/19 01:54:07;;;;;;;2.40;1.20;;;19.80;51.60;;;;;;4933694;28;20204;-36
2022/10/19 01:56:40;;;;;;;2.55;0.85;;;19.90;51.60;;;;;;4944949;28;20229;-38
2022/10/19 01:59:13;;;;;;;2.47;1.02;;;19.90;51.30;;;;;;4936439;29;20261;-35
2022/10/19 02:01:49;;;;;;;2.03;1.10;;;19.90;51.00;;;;;;4936835;29;20195;-38
2022/10/19 02:04:22;;;;;;;1.60;0.90;;;19.90;50.90;;;;;;4936688;29;20199;-36
2022/10/19 02:06:54;;;;;;;1.88;0.95;;;19.90;50.90;;;;;;4936923;29;20317;-36
2022/10/19 02:09:25;;;;;;;1.13;0.80;;;19.90;50.90;;;;;;4937985;29;20200;-38
2022/10/19 02:11:58;;;;;;;1.10;0.60;;;20.00;50.80;;;;;;4936565;29;20184;-41
2022/10/19 02:14:32;;;;;;;1.63;0.88;;;20.00;50.70;;;;;;4936909;29;20664;-43
2022/10/19 02:17:07;;;;;;;1.70;1.00;;;20.00;50.80;;;;;;4936329;29;20215;-41
2022/10/19 02:19:38;;;;;;;1.38;0.70;;;20.00;51.00;;;;;;4936809;29;20203;-36
2022/10/19 02:22:09;;;;;;;1.00;0.70;;;20.00;51.00;;;;;;4935933;29;20310;-36
2022/10/19 02:24:40;;;;;;;1.13;0.90;;;20.00;51.10;;;;;;4935722;29;20203;-35
2022/10/19 02:27:11;;;;;;;1.13;0.82;;;20.10;51.00;;;;;;4935802;29;20239;-36
2022/10/19 02:29:42;;;;;;;1.95;1.13;;;20.10;50.90;;;;;;4936461;29;20195;-37
2022/10/19 02:32:15;;;;;;;1.52;1.00;;;20.10;50.70;;;;;;4937273;29;20196;-38
2022/10/19 02:34:46;;;;;;;1.40;0.90;;;20.10;50.80;;;;;;4955228;29;20649;-40
2022/10/19 02:37:17;;;;;;;1.10;0.73;;;20.20;50.80;;;;;;4946859;28;20220;-39
2022/10/19 02:39:48;;;;;;;1.42;0.90;;;20.20;50.70;;;;;;4936848;29;20215;-36
2022/10/19 02:42:23;;;;;;;1.17;0.90;;;20.20;50.60;;;;;;4936954;29;20196;-36
2022/10/19 02:44:59;;;;;;;2.22;1.05;;;20.20;50.60;;;;;;4936399;29;20218;-38
2022/10/19 02:47:37;;;;;;;1.33;0.80;;;20.30;50.50;;;;;;4936273;29;20223;-36
2022/10/19 02:50:09;;;;;;;2.17;1.00;;;20.30;50.40;;;;;;4936052;29;20206;-39
2022/10/19 02:52:40;;;;;;;0.70;0.65;;;20.30;50.50;;;;;;4936125;29;20676;-38
2022/10/19 02:55:11;;;;;;;0.90;0.85;;;20.30;50.50;;;;;;4936581;29;20210;-38
2022/10/19 02:57:42;;;;;;;1.70;0.98;;;20.30;50.50;;;;;;4935694;29;20207;-36
2022/10/19 03:00:13;;;;;;;1.77;0.77;;;20.40;50.40;;;;;;4938776;29;20213;-36
2022/10/19 03:02:47;;;;;;;1.00;0.80;;;20.40;50.20;;;;;;4947188;29;20227;-36
2022/10/19 03:05:17;;;;;;;1.90;1.00;;;20.40;50.10;;;;;;4956188;28;20222;-36
2022/10/19 03:07:48;;;;;;;1.45;0.70;;;20.50;49.90;;;;;;4954498;28;20611;-36
2022/10/19 03:10:19;;;;;;;1.52;0.70;;;20.50;49.70;;;;;;4955807;28;20205;-48
2022/10/19 03:12:50;;;;;;;2.05;0.85;;;20.50;49.40;;;;;;4945796;28;20655;-39
2022/10/19 03:15:23;;;;;;;0.90;0.63;;;20.50;49.40;;;;;;4935448;29;20711;-37
2022/10/19 03:17:58;;;;;;;1.75;0.88;;;20.50;49.20;;;;;;4935141;29;20200;-36
2022/10/19 03:20:29;;;;;;;1.42;0.73;;;20.50;49.20;;;;;;4935526;29;20217;-36
2022/10/19 03:22:59;;;;;;;1.58;0.70;;;20.50;49.10;;;;;;4936173;29;20199;-35
2022/10/19 03:25:32;;;;;;;0.77;0.60;;;20.50;49.30;;;;;;4935312;29;20726;-36
2022/10/19 03:28:03;;;;;;;1.30;0.77;;;20.50;49.30;;;;;;4935870;29;20227;-35
2022/10/19 03:30:34;;;;;;;0.70;0.63;;;20.60;49.40;;;;;;4935697;29;20199;-36
2022/10/19 03:33:06;;;;;;;1.27;0.80;;;20.60;49.50;;;;;;4940677;29;20542;-41
2022/10/19 03:35:37;;;;;;;1.40;0.88;;;20.70;49.30;;;;;;4954099;28;20219;-36
2022/10/19 03:38:08;;;;;;;1.45;0.70;;;20.70;49.40;;;;;;4942216;28;20205;-38
2022/10/19 03:40:39;;;;;;;0.88;0.55;;;20.70;49.10;;;;;;4935418;29;20226;-36
2022/10/19 03:43:09;;;;;;;2.15;0.80;;;20.70;49.00;;;;;;4933907;29;20210;-38
2022/10/19 03:45:40;;;;;;;1.55;0.90;;;20.70;48.80;;;;;;4935354;29;20227;-35
2022/10/19 03:48:13;;;;;;;0.85;0.70;;;20.80;48.50;;;;;;4935357;29;20230;-36
2022/10/19 03:50:43;;;;;;;0.93;0.70;;;20.80;48.30;;;;;;4928399;29;20574;-42
2022/10/19 03:53:14;;;;;;;1.00;0.68;;;20.80;48.10;;;;;;4934189;29;20220;-45
2022/10/19 03:55:45;;;;;;;0.73;0.68;;;20.80;48.20;;;;;;4935402;29;20223;-36
2022/10/19 03:58:15;;;;;;;1.02;0.60;;;20.80;48.10;;;;;;4934354;29;20654;-36
2022/10/19 04:00:46;;;;;;;1.92;0.77;;;20.90;48.30;;;;;;4935111;29;20199;-35
2022/10/19 04:03:19;;;;;;;1.02;0.60;;;20.90;48.50;;;;;;4935057;29;20199;-36
2022/10/19 04:05:49;;;;;;;1.13;0.70;;;20.90;48.40;;;;;;4934589;29;20225;-38
2022/10/19 04:08:20;;;;;;;1.38;0.60;;;20.90;48.50;;;;;;4934158;29;20223;-41
2022/10/19 04:10:51;;;;;;;0.70;0.60;;;20.90;48.30;;;;;;4936075;29;20656;-37
2022/10/19 04:13:22;;;;;;;1.38;0.60;;;20.90;48.10;;;;;;4934689;29;20195;-35
2022/10/19 04:15:52;;;;;;;1.58;0.65;;;20.90;48.00;;;;;;4941719;28;20214;-36
2022/10/19 04:18:25;;;;;;;2.40;0.80;;;20.90;47.90;;;;;;4940382;28;20195;-35
2022/10/19 04:21:03;;;;;;;1.30;0.60;;;20.90;48.00;;;;;;4934935;29;20208;-36
2022/10/19 04:23:37;;;;;;;1.33;0.70;;;20.90;48.00;;;;;;4934689;29;20221;-36
2022/10/19 04:26:09;;;;;;;1.35;0.60;;;20.90;47.90;;;;;;4934182;29;20278;-35
2022/10/19 04:28:40;;;;;;;1.48;0.73;;;20.90;48.30;;;;;;4947096;29;20222;-45
2022/10/19 04:31:11;;;;;;;0.90;0.70;;;20.90;47.90;;;;;;4953609;28;20615;-35
2022/10/19 04:33:44;;;;;;;1.55;0.90;;;20.90;48.10;;;;;;4939417;28;20678;-36
2022/10/19 04:36:15;;;;;;;1.65;0.80;;;20.90;48.30;;;;;;4934883;29;20219;-42
2022/10/19 04:38:46;;;;;;;1.15;0.68;;;20.90;48.40;;;;;;4934046;29;20412;-41
2022/10/19 04:41:18;;;;;;;1.67;0.70;;;21.00;48.50;;;;;;4934655;29;20206;-38
2022/10/19 04:43:49;;;;;;;1.40;1.20;;;21.00;48.40;;;;;;4933860;29;20199;-43
2022/10/19 04:46:21;;;;;;;1.40;1.00;;;21.00;48.50;;;;;;4934395;29;20266;-46
2022/10/19 04:48:54;;;;;;;2.17;1.02;;;21.10;48.50;;;;;;4934089;29;20230;-44
2022/10/19 04:51:25;;;;;;;1.25;0.88;;;21.10;48.40;;;;;;4934263;29;20211;-43
2022/10/19 04:53:57;;;;;;;1.30;0.82;;;21.10;48.50;;;;;;4934464;29;20675;-44
2022/10/19 04:56:29;;;;;;;1.85;0.80;;;21.20;48.40;;;;;;4934535;29;20259;-35
2022/10/19 04:59:01;;;;;;;1.65;0.80;;;21.20;48.30;;;;;;4934680;29;20200;-38
2022/10/19 05:01:32;;;;;;;1.23;0.70;;;21.20;48.40;;;;;;4951511;29;20199;-42
2022/10/19 05:04:05;;;;;;;1.27;0.68;;;21.30;48.40;;;;;;4953492;28;20191;-37
2022/10/19 05:06:36;;;;;;;2.72;0.80;;;21.30;48.40;;;;;;4946330;28;20682;-35
2022/10/19 05:09:08;;;;;;;1.25;0.80;;;21.30;48.50;;;;;;4935498;29;20227;-35
2022/10/19 05:11:38;;;;;;;1.23;0.70;;;21.30;48.50;;;;;;4934114;29;20199;-35
2022/10/19 05:14:09;;;;;;;1.75;0.70;;;21.30;49.20;;;;;;4944893;29;20202;-38
2022/10/19 05:16:40;;;;;;;1.75;0.80;;;21.30;48.50;;;;;;4950092;28;20219;-36
2022/10/19 05:19:15;;;;;;;1.23;0.73;;;21.30;48.40;;;;;;4933972;29;20203;-35
2022/10/19 05:21:46;;;;;;;1.10;0.73;;;21.30;48.30;;;;;;4933817;29;20199;-36
2022/10/19 05:24:17;;;;;;;0.73;0.65;;;21.30;48.40;;;;;;4934232;28;20229;-35
2022/10/19 05:26:47;;;;;;;1.55;0.65;;;21.30;48.40;;;;;;4934049;29;20246;-35
2022/10/19 05:29:18;;;;;;;1.02;0.80;;;21.30;48.40;;;;;;4934084;29;20210;-37
2022/10/19 05:31:49;;;;;;;1.25;0.77;;;21.30;48.40;;;;;;4934276;29;20187;-35
2022/10/19 05:34:21;;;;;;;2.38;0.65;;;21.30;48.30;;;;;;4933929;29;20204;-35
2022/10/19 05:36:52;;;;;;;1.40;0.70;;;21.30;48.30;;;;;;4934165;29;20215;-40
2022/10/19 05:39:23;;;;;;;1.58;0.70;;;21.20;48.40;;;;;;4933548;29;20559;-42
2022/10/19 05:41:54;;;;;;;1.48;0.90;;;21.30;48.20;;;;;;4933821;29;20199;-38
2022/10/19 05:44:25;;;;;;;0.60;0.60;;;21.30;48.30;;;;;;4933560;29;20195;-45
2022/10/19 05:46:56;;;;;;;1.33;0.50;;;21.30;48.30;;;;;;4934102;29;20702;-41
2022/10/19 05:49:28;;;;;;;1.35;0.80;;;21.30;48.20;;;;;;4933997;29;20199;-40
2022/10/19 05:51:59;;;;;;;1.52;0.60;;;21.20;48.20;;;;;;4932046;29;20271;-36
2022/10/19 05:54:30;;;;;;;1.98;0.90;;;21.20;48.20;;;;;;4933948;29;20290;-40
2022/10/19 05:57:01;;;;;;;12.65;5.50;;;21.20;48.00;;;;;;4933634;29;20226;-46
2022/10/19 05:59:32;;;;;;;23.70;7.85;;;21.20;47.90;;;;;;4933910;29;20660;-38
2022/10/19 06:02:02;;;;;;;26.35;9.20;;;21.20;47.90;;;;;;4933722;29;20215;-37
2022/10/19 06:04:35;;;;;;;24.65;8.55;;;21.20;47.80;;;;;;4941230;29;20688;-42
2022/10/19 06:07:06;;;;;;;27.70;9.18;;;21.20;47.70;;;;;;4948846;28;20710;-42
2022/10/19 06:09:37;;;;;;;34.63;12.70;;;21.20;47.60;;;;;;4933903;29;20203;-42
2022/10/19 06:12:09;;;;;;;31.27;11.73;;;21.10;47.50;;;;;;4933591;29;20227;-36
2022/10/19 06:14:40;;;;;;;34.95;11.57;;;21.10;47.60;;;;;;4933610;29;20204;-38
2022/10/19 06:17:10;;;;;;;35.78;12.27;;;21.10;47.60;;;;;;4933547;29;20223;-36
2022/10/19 06:19:43;;;;;;;39.70;11.85;;;21.10;47.50;;;;;;4933288;29;20211;-37
2022/10/19 06:22:14;;;;;;;33.78;11.32;;;21.10;47.40;;;;;;4933833;29;20203;-40
2022/10/19 06:24:44;;;;;;;31.88;11.40;;;21.10;47.20;;;;;;4933281;29;20222;-35
2022/10/19 06:27:15;;;;;;;30.25;10.70;;;21.10;47.30;;;;;;4931255;29;20638;-37
2022/10/19 06:29:46;;;;;;;34.63;10.90;;;21.00;47.20;;;;;;4933630;29;20209;-37
2022/10/19 06:32:16;;;;;;;31.63;10.48;;;21.00;47.20;;;;;;4933662;29;20219;-35
2022/10/19 06:34:49;;;;;;;24.45;9.57;;;21.00;47.10;;;;;;4932890;29;20206;-35
2022/10/19 06:37:20;;;;;;;22.08;9.82;;;21.00;47.20;;;;;;4939482;29;20245;-45
2022/10/19 06:39:50;;;;;;;24.42;9.82;;;21.00;47.20;;;;;;4952786;28;20199;-43
2022/10/19 06:42:21;;;;;;;23.00;9.60;;;20.90;47.00;;;;;;4954204;28;20341;-36
2022/10/19 06:44:52;;;;;;;22.48;9.40;;;20.90;47.10;;;;;;4953931;28;20502;-39
2022/10/19 06:47:26;;;;;;;21.83;9.38;;;20.90;47.10;;;;;;4953975;28;20695;-35
2022/10/19 06:49:59;;;;;;;26.35;9.18;;;20.90;47.30;;;;;;4954330;28;20198;-36
2022/10/19 06:52:30;;;;;;;22.75;8.35;;;20.80;47.20;;;;;;4953020;28;20195;-38
2022/10/19 06:55:00;;;;;;;19.70;8.00;;;20.80;47.20;;;;;;4935313;29;20195;-36
2022/10/19 06:57:31;;;;;;;22.88;8.18;;;20.80;47.30;;;;;;4937569;29;20230;-35
2022/10/19 07:00:02;;;;;;;21.38;7.95;;;20.80;47.20;;;;;;4935383;29;20196;-38
2022/10/19 07:02:33;;;;;;;23.80;8.82;;;20.80;47.20;;;;;;4935444;29;20225;-39
2022/10/19 07:05:06;;;;;;;21.83;7.75;;;20.80;47.20;;;;;;4946767;29;20201;-38
2022/10/19 07:07:37;;;;;;;21.85;8.05;;;20.70;47.20;;;;;;4952868;28;20195;-37
2022/10/19 07:10:08;;;;;;;21.17;8.25;;;20.70;47.20;;;;;;4934934;29;20196;-35
2022/10/19 07:12:39;;;;;;;22.65;7.97;;;20.70;47.30;;;;;;4935216;29;20199;-34
2022/10/19 07:15:11;;;;;;;20.60;7.50;;;20.70;47.40;;;;;;4934933;29;20200;-34
2022/10/19 07:17:42;;;;;;;22.80;7.03;;;20.70;47.40;;;;;;4935032;29;20200;-38
2022/10/19 07:20:15;;;;;;;24.55;7.97;;;20.70;47.40;;;;;;4934628;29;20566;-45
2022/10/19 07:22:46;;;;;;;19.42;6.90;;;20.60;47.30;;;;;;4934867;29;20599;-35
2022/10/19 07:25:16;;;;;;;19.35;7.00;;;20.60;47.20;;;;;;4934959;29;20203;-43
2022/10/19 07:27:47;;;;;;;18.00;6.97;;;20.60;47.10;;;;;;4934792;29;20213;-39
2022/10/19 07:30:19;;;;;;;17.73;6.60;;;20.60;47.10;;;;;;4934759;29;20203;-35
2022/10/19 07:32:50;;;;;;;17.50;6.70;;;20.50;47.00;;;;;;4934697;29;20660;-35
2022/10/19 07:35:22;;;;;;;16.30;6.88;;;20.50;47.00;;;;;;4934822;29;20202;-48
2022/10/19 07:37:53;;;;;;;14.77;6.32;;;20.50;47.10;;;;;;4934584;29;20211;-40
2022/10/19 07:40:24;;;;;;;17.63;6.63;;;20.50;47.30;;;;;;4934898;29;20208;-36
2022/10/19 07:42:55;;;;;;;13.98;5.68;;;20.40;47.40;;;;;;4934198;29;20202;-37
2022/10/19 07:45:25;;;;;;;16.63;6.28;;;20.40;47.40;;;;;;4933971;29;20199;-35
2022/10/19 07:47:56;;;;;;;11.77;5.47;;;20.40;47.40;;;;;;4934091;29;20920;-42
2022/10/19 07:50:29;;;;;;;15.07;6.07;;;20.40;47.40;;;;;;4934180;29;20211;-42
2022/10/19 07:52:59;;;;;;;13.35;5.68;;;20.30;47.30;;;;;;4930738;29;20196;-37
2022/10/19 07:55:30;;;;;;;10.48;5.10;;;20.30;47.30;;;;;;4933585;29;20648;-40
2022/10/19 07:58:01;;;;;;;13.15;5.70;;;20.30;47.20;;;;;;4933941;29;20207;-46
2022/10/19 08:00:31;;;;;;;14.93;5.95;;;20.30;47.30;;;;;;4934048;29;20211;-39
2022/10/19 08:03:02;;;;;;;13.13;4.82;;;20.30;47.30;;;;;;4934686;29;20207;-43
2022/10/19 08:05:35;;;;;;;10.85;4.68;;;20.30;47.30;;;;;;4949510;28;20714;-38
2022/10/19 08:08:06;;;;;;;9.85;4.82;;;20.30;47.20;;;;;;4950808;28;20222;-35
2022/10/19 08:10:37;;;;;;;8.27;4.28;;;20.30;47.20;;;;;;4934201;29;20218;-37
2022/10/19 08:13:07;;;;;;;13.20;4.95;;;20.20;47.20;;;;;;4933804;29;20672;-37
2022/10/19 08:15:38;;;;;;;10.68;4.63;;;20.20;47.40;;;;;;4933859;29;20219;-35
2022/10/19 08:18:10;;;;;;;12.98;4.35;;;20.20;47.40;;;;;;4933985;29;20214;-34
2022/10/19 08:20:43;;;;;;;10.57;4.95;;;20.20;47.60;;;;;;4933863;29;20630;-35
2022/10/19 08:23:14;;;;;;;11.75;4.47;;;20.10;47.50;;;;;;4933294;29;20210;-35
2022/10/19 08:25:45;;;;;;;11.25;3.83;;;20.10;47.60;;;;;;4933202;29;20235;-35
2022/10/19 08:28:16;;;;;;;9.45;4.18;;;20.10;47.60;;;;;;4933372;29;20242;-44
2022/10/19 08:30:46;;;;;;;10.20;4.57;;;20.10;47.60;;;;;;4933628;29;20206;-37
2022/10/19 08:33:17;;;;;;;6.40;3.63;;;20.10;47.70;;;;;;4930920;29;20219;-35
2022/10/19 08:35:50;;;;;;;7.68;4.05;;;20.10;47.70;;;;;;4934543;29;20224;-39
2022/10/19 08:38:21;;;;;;;9.38;4.18;;;20.00;47.60;;;;;;4935210;29;20200;-38
2022/10/19 08:40:52;;;;;;;8.23;4.28;;;20.00;47.60;;;;;;4934468;29;20698;-35
2022/10/19 08:43:28;;;;;;;8.13;3.70;;;20.00;47.60;;;;;;4934584;28;20682;-44
2022/10/19 08:46:04;;;;;;;9.10;4.00;;;20.00;47.70;;;;;;4934440;29;20225;-39
2022/10/19 08:48:38;;;;;;;6.05;3.90;;;20.00;47.70;;;;;;4934258;29;20222;-36
2022/10/19 08:51:11;;;;;;;7.57;3.35;;;20.00;47.80;;;;;;4934229;29;20203;-37
2022/10/19 08:53:52;;;;;;;9.57;3.92;;;19.90;47.80;;;;;;4934038;29;20883;-35
2022/10/19 08:56:29;;;;;;;7.03;3.40;;;19.90;47.80;;;;;;4945046;28;20234;-35
2022/10/19 08:59:15;;;;;;;8.05;3.67;;;19.90;47.90;;;;;;4934411;29;20203;-41
2022/10/19 09:01:51;;;;;;;7.35;3.65;;;19.90;47.80;;;;;;4933258;29;20207;-42
2022/10/19 09:04:26;;;;;;;7.07;3.30;;;19.90;47.80;;;;;;4920863;29;20211;-35
2022/10/19 09:07:09;;;;;;;6.20;3.28;;;19.80;47.70;;;;;;4935263;29;20699;-35
2022/10/19 09:09:44;;;;;;;5.65;3.25;;;19.80;47.70;;;;;;4952466;28;20234;-42
2022/10/19 09:12:19;;;;;;;6.75;3.15;;;19.80;47.70;;;;;;4952636;28;20198;-39
2022/10/19 09:14:59;;;;;;;7.80;2.95;;;19.80;47.70;;;;;;4935027;28;20554;-36
2022/10/19 09:17:32;;;;;;;8.18;3.70;;;19.80;47.80;;;;;;4934272;29;20598;-36
2022/10/19 09:20:17;;;;;;;8.07;3.55;;;19.80;47.80;;;;;;4933212;29;20217;-36
2022/10/19 09:22:59;;;;;;;7.60;3.08;;;19.70;47.80;;;;;;4933998;29;20210;-39
2022/10/19 09:25:31;;;;;;;7.88;3.33;;;19.70;47.90;;;;;;4932932;29;20844;-41
2022/10/19 09:28:12;;;;;;;8.93;3.28;;;19.70;47.90;;;;;;4933725;29;20258;-42
2022/10/19 09:30:44;;;;;;;5.68;3.13;;;19.70;48.00;;;;;;4933315;29;20199;-37
2022/10/19 09:33:22;;;;;;;6.35;2.85;;;19.60;47.90;;;;;;4933000;29;20202;-42
2022/10/19 09:35:54;;;;;;;5.30;2.65;;;19.60;47.90;;;;;;4933582;29;20220;-41
2022/10/19 09:38:30;;;;;;;8.30;2.78;;;19.70;47.90;;;;;;4934247;29;20672;-35
2022/10/19 09:41:07;;;;;;;6.13;2.58;;;19.60;47.90;;;;;;4933837;29;20572;-37
2022/10/19 09:43:38;;;;;;;5.38;2.65;;;19.60;47.90;;;;;;4933474;29;20203;-35
2022/10/19 09:46:16;;;;;;;6.55;2.85;;;19.60;47.80;;;;;;4933670;29;20224;-39
2022/10/19 09:48:51;;;;;;;5.78;2.85;;;19.60;47.80;;;;;;4933628;29;20567;-37
2022/10/19 09:51:22;;;;;;;6.43;2.58;;;19.50;47.80;;;;;;4933576;29;20205;-37
2022/10/19 09:53:56;;;;;;;6.28;2.78;;;19.50;47.80;;;;;;4933237;29;20191;-41
2022/10/19 09:56:28;;;;;;;6.97;2.63;;;19.50;47.90;;;;;;4933611;29;20258;-37
2022/10/19 09:59:00;;;;;;;4.97;2.70;;;19.50;47.90;;;;;;4933862;29;20195;-37
2022/10/19 10:01:34;;;;;;;6.95;2.58;;;19.50;47.90;;;;;;4934484;29;20199;-36
2022/10/19 10:04:09;;;;;;;4.13;2.17;;;19.40;47.90;;;;;;4932655;29;20198;-35
2022/10/19 10:06:42;;;;;;;5.00;2.25;;;19.40;48.00;;;;;;4932920;29;20218;-38
2022/10/19 10:09:19;;;;;;;3.70;2.15;;;19.40;48.00;;;;;;4932879;29;20238;-36
2022/10/19 10:11:52;;;;;;;3.90;1.83;;;19.40;48.00;;;;;;4933073;29;20195;-37
2022/10/19 10:14:25;;;;;;;3.53;1.90;;;19.30;48.00;;;;;;4933531;29;20200;-36
2022/10/19 10:16:59;;;;;;;4.00;2.10;;;19.30;48.00;;;;;;4935284;29;20232;-36
2022/10/19 10:19:31;;;;;;;4.03;1.95;;;19.30;47.90;;;;;;4937150;29;20707;-35
2022/10/19 10:22:04;;;;;;;4.82;2.20;;;19.30;47.90;;;;;;4936354;29;20207;-40
2022/10/19 10:24:37;;;;;;;4.75;2.17;;;19.30;47.90;;;;;;4936321;29;20200;-41
2022/10/19 10:27:26;;;;;;;3.53;2.10;;;19.30;48.00;;;;;;4936137;29;20219;-42
2022/10/19 10:29:58;;;;;;;3.70;2.15;;;19.20;48.00;;;;;;4935506;29;20229;-36
2022/10/19 10:32:30;;;;;;;3.03;1.77;;;19.20;48.00;;;;;;4936265;29;20192;-42
2022/10/19 10:35:04;;;;;;;2.92;1.77;;;19.20;48.00;;;;;;4936204;29;20200;-38
2022/10/19 10:37:40;;;;;;;4.93;2.10;;;19.20;48.20;;;;;;4936535;29;20207;-35
2022/10/19 10:40:24;;;;;;;4.45;2.10;;;19.10;48.20;;;;;;4936584;29;20213;-39
2022/10/19 10:42:56;;;;;;;4.18;2.13;;;19.10;48.10;;;;;;4936309;29;20203;-40
2022/10/19 10:45:32;;;;;;;3.72;2.08;;;19.10;48.20;;;;;;4936692;29;20218;-39
2022/10/19 10:48:16;;;;;;;3.78;1.80;;;19.10;48.20;;;;;;4939466;29;20191;-36
2022/10/19 10:50:47;;;;;;;3.33;1.58;;;19.10;48.10;;;;;;4935711;29;20279;-36
2022/10/19 10:53:39;;;;;;;3.70;1.65;;;19.10;48.10;;;;;;4935756;29;20219;-37
2022/10/19 10:56:24;;;;;;;3.22;1.95;;;19.10;48.10;;;;;;4935076;29;20234;-39
2022/10/19 10:59:02;;;;;;;3.85;1.95;;;19.00;48.10;;;;;;4934798;29;20772;-35
2022/10/19 11:01:36;;;;;;;3.28;1.85;;;19.00;48.10;;;;;;4935149;29;20282;-39
2022/10/19 11:04:11;;;;;;;4.40;2.08;;;19.00;48.40;;;;;;4939375;29;20575;-35
2022/10/19 11:06:45;;;;;;;3.35;1.90;;;19.00;48.20;;;;;;4954338;28;20214;-45
2022/10/19 11:09:23;;;;;;;4.15;1.88;;;18.90;48.20;;;;;;4954011;28;20297;-39
2022/10/19 11:11:58;;;;;;;2.78;1.73;;;18.90;48.30;;;;;;4954085;28;20202;-35
2022/10/19 11:14:34;;;;;;;3.67;1.83;;;18.90;48.30;;;;;;4945904;28;20210;-35
2022/10/19 11:17:12;;;;;;;3.72;1.90;;;18.90;48.30;;;;;;4934763;29;20227;-39
2022/10/19 11:19:45;;;;;;;2.97;1.52;;;18.80;48.30;;;;;;4935081;29;20206;-35
2022/10/19 11:22:27;;;;;;;2.97;1.63;;;18.80;48.30;;;;;;4935257;29;20229;-37
2022/10/19 11:25:11;;;;;;;3.35;1.65;;;18.80;48.30;;;;;;4935117;29;20287;-37
2022/10/19 11:27:55;;;;;;;3.63;1.70;;;18.80;48.30;;;;;;4934390;29;20218;-38
2022/10/19 11:30:27;;;;;;;3.10;1.45;;;18.80;48.20;;;;;;4934300;29;20628;-34
2022/10/19 11:33:07;;;;;;;2.10;1.52;;;18.80;48.20;;;;;;4935098;29;20204;-36
2022/10/19 11:35:52;;;;;;;3.53;2.08;;;18.70;48.20;;;;;;4935024;29;20227;-35
2022/10/19 11:38:41;;;;;;;2.28;1.20;;;18.70;48.30;;;;;;4935012;29;20763;-36
2022/10/19 11:41:25;;;;;;;2.55;1.60;;;18.70;48.40;;;;;;4934969;29;20229;-35
2022/10/19 11:44:16;;;;;;;3.90;1.98;;;18.60;48.30;;;;;;4933959;29;20259;-36
2022/10/19 11:46:55;;;;;;;2.55;1.48;;;18.60;48.40;;;;;;4933495;29;20247;-36
2022/10/19 11:49:37;;;;;;;1.80;1.10;;;18.60;48.40;;;;;;4934275;29;20223;-43
2022/10/19 11:52:15;;;;;;;2.28;1.58;;;18.60;48.40;;;;;;4934585;29;20206;-34
2022/10/19 11:54:57;;;;;;;2.67;1.55;;;18.60;48.40;;;;;;4934679;29;20200;-36
2022/10/19 11:57:32;;;;;;;2.08;1.25;;;18.60;48.40;;;;;;4934173;29;20223;-36
2022/10/19 12:00:11;;;;;;;2.25;1.40;;;18.50;48.30;;;;;;4934119;29;20202;-35
2022/10/19 12:03:03;;;;;;;3.47;1.63;;;18.60;48.40;;;;;;4934299;29;20656;-35
2022/10/19 12:05:39;;;;;;;3.22;1.52;;;18.60;48.40;;;;;;4948803;28;20218;-35
2022/10/19 12:08:26;;;;;;;2.15;1.38;;;18.50;48.30;;;;;;4952750;28;20671;-42
2022/10/19 12:11:05;;;;;;;2.97;1.63;;;18.50;48.40;;;;;;4952935;28;20226;-37
2022/10/19 12:13:42;;;;;;;2.20;1.40;;;18.50;48.40;;;;;;4952781;28;20198;-42
2022/10/19 12:16:17;;;;;;;2.25;1.48;;;18.40;48.40;;;;;;4933539;28;20219;-39
2022/10/19 12:18:50;;;;;;;2.67;1.63;;;18.40;48.40;;;;;;4933868;29;20214;-43
2022/10/19 12:21:28;;;;;;;1.58;1.20;;;18.40;48.50;;;;;;4933639;29;20223;-40
2022/10/19 12:24:00;;;;;;;2.25;1.20;;;18.40;48.50;;;;;;4933641;29;20203;-39
2022/10/19 12:26:35;;;;;;;2.80;1.50;;;18.40;48.50;;;;;;4933171;29;20224;-40
2022/10/19 12:29:08;;;;;;;2.20;1.40;;;18.40;48.50;;;;;;4933347;29;20202;-42
2022/10/19 12:31:41;;;;;;;1.55;1.20;;;18.40;48.50;;;;;;4934061;29;20196;-47
2022/10/19 12:34:23;;;;;;;2.22;1.55;;;18.40;48.40;;;;;;4933243;29;20914;-44
2022/10/19 12:37:00;;;;;;;1.50;1.10;;;18.30;48.40;;;;;;4933473;29;20212;-37
2022/10/19 12:39:41;;;;;;;1.17;0.95;;;18.30;48.40;;;;;;4933513;29;20210;-41
2022/10/19 12:42:20;;;;;;;2.28;1.35;;;18.30;48.40;;;;;;4933493;29;20251;-43
2022/10/19 12:45:17;;;;;;;1.60;1.10;;;18.30;48.40;;;;;;4932930;29;20195;-44
2022/10/19 12:48:27;;;;;;;1.60;0.98;;;18.30;48.50;;;;;;4933629;29;20199;-43
2022/10/19 12:51:15;;;;;;;2.25;1.25;;;18.20;48.50;;;;;;4944915;28;20212;-38
2022/10/19 12:53:48;;;;;;;1.75;1.05;;;18.20;48.40;;;;;;4933282;29;20203;-39
2022/10/19 12:56:22;;;;;;;2.78;1.30;;;18.20;48.50;;;;;;4933427;29;20279;-37
2022/10/19 12:58:56;;;;;;;1.17;1.00;;;18.20;48.50;;;;;;4933484;29;20200;-43
2022/10/19 13:01:29;;;;;;;2.13;1.10;;;18.20;48.50;;;;;;4932812;29;20234;-37
2022/10/19 13:04:13;;;;;;;1.55;1.20;;;18.10;48.50;;;;;;4935585;29;20659;-39
2022/10/19 13:06:48;;;;;;;1.58;0.95;;;18.20;48.50;;;;;;4952038;28;20222;-45
2022/10/19 13:09:29;;;;;;;1.15;0.85;;;18.10;48.40;;;;;;4952148;28;20612;-41
2022/10/19 13:12:34;;;;;;;1.65;0.95;;;18.10;48.40;;;;;;4952487;28;20579;-42
2022/10/19 13:15:07;;;;;;;1.80;1.17;;;18.10;48.40;;;;;;4938552;28;20958;-40
2022/10/19 13:17:45;;;;;;;2.33;1.15;;;18.10;48.40;;;;;;4932773;29;20211;-43
2022/10/19 13:20:53;;;;;;;1.80;1.00;;;18.10;48.50;;;;;;4932984;29;20210;-48
2022/10/19 13:23:45;;;;;;;2.65;1.17;;;18.10;48.60;;;;;;4932727;29;20201;-45